• Join FlightAware (Why Join?)
  • Login
  • US Flag 
12:51PM EST


 

Airport Tracker/Info


-or-


 

Live Flight TrackerFlight Track Log ✈ GJS3649 ✈ 03-Jul-2013 ✈ KORD - KBDL

Flight Track Log - Related Links

Times and Time Zones

All times are in EDT time to prevent confusion due to time zone crossing. See the GJS3649 flight status page for this flight to view local times or setup timezone preferences in your user account.

Time Position Orientation Groundspeed Altitude Reporting Facility
EDT Latitude Longitude Course Direction KTS MPH feet Rate Location/Type
12:21PM 41.9667 -87.9667 360° North 184 212 2,400  Level Chicago TRACON
12:22PM 42.0333 -87.9667 360° North 246 283 4,800 2,160 Climbing Chicago TRACON
12:23PM 42.0833 -87.9167 37° Northeast 288 331 6,800 2,400 Climbing Chicago TRACON
12:24PM 42.1033 -87.8531 67° East 285 328 8,800 2,700 Climbing Chicago Center
12:25PM 42.1039 -87.7483 90° East 278 320 11,600 2,460 Climbing Chicago Center
12:26PM 42.1044 -87.6392 90° East 288 331 13,900 1,680 Climbing Chicago Center
12:27PM 42.1064 -87.5214 89° East 309 356 15,100 1,500 Climbing Chicago Center
12:28PM 42.1081 -87.3658 89° East 344 396 17,100 1,740 Climbing Chicago Center
12:29PM 42.1103 -87.2256 89° East 370 426 18,800 1,680 Climbing Chicago Center
12:30PM 42.1119 -87.0822 89° East 381 438 20,600 1,740 Climbing Chicago Center
12:31PM 42.1164 -86.9339 88° East 395 455 22,400 1,560 Climbing Chicago Center
12:32PM 42.1219 -86.7817 87° East 407 468 23,900 1,440 Climbing Chicago Center
12:33PM 42.1281 -86.6017 87° East 419 482 25,400 1,140 Climbing Chicago Center
12:34PM 42.1336 -86.4381 87° East 433 498 26,300 840 Climbing Chicago Center
12:35PM 42.1397 -86.2669 87° East 453 521 27,200 960 Climbing Chicago Center
12:36PM 42.1447 -86.0914 88° East 466 536 28,400 1,380 Climbing Chicago Center
12:37PM 42.1425 -85.8997 91° East 460 529 30,100 1,380 Climbing Chicago Center
12:38PM 42.1411 -85.7314 91° East 454 522 31,300 960 Climbing Chicago Center
12:39PM 42.1369 -85.5608 92° East 457 526 32,200 780 Climbing Chicago Center
12:40PM 42.1364 -85.3875 90° East 463 533 33,000 720 Climbing Chicago Center
12:41PM 42.1356 -85.2097 90° East 474 545 33,800 840 Climbing Chicago Center
12:42PM 42.1333 -84.9936 91° East 482 555 34,800 840 Climbing Chicago Center
12:43PM 42.1489 -84.8092 83° East 497 572 35,600 780 Climbing Chicago Center
12:44PM 42.1653 -84.6278 83° East 493 567 36,500 840 Climbing Chicago Center
12:45PM 42.1794 -84.4469 84° East 489 563 37,400 900 Climbing Chicago Center
12:46PM 42.1942 -84.2692 84° East 482 555 38,400 720 Climbing Chicago Center
12:47PM 42.2100 -84.0597 84° East 472 543 39,000 240 Climbing Chicago Center
12:48PM 42.2242 -83.8828 84° East 475 547 39,000  Level Chicago Center
12:50PM 42.2417 -83.6686 84° East 481 554 39,000  Level Cleveland Center
12:51PM 42.2503 -83.4922 86° East 476 548 39,000  Level Cleveland Center
12:52PM 42.2631 -83.3131 84° East 481 554 39,000  Level Cleveland Center
12:53PM 42.2772 -83.1481 83° East 481 554 39,000  Level Cleveland Center
12:54PM 42.2894 -82.9689 85° East 476 548 39,000  Level Cleveland Center
12:55PM 42.3014 -82.7869 85° East 476 548 39,000  Level Cleveland Center
12:56PM 42.3153 -82.6078 84° East 482 555 39,000  Level Cleveland Center
12:57PM 42.3267 -82.4283 85° East 477 549 39,000  Level Cleveland Center
12:58PM 42.3378 -82.2319 86° East 482 555 39,000  Level Cleveland Center
12:59PM 42.3508 -82.0469 84° East 482 555 39,000  Level Cleveland Center
01:00PM 42.3614 -81.8644 85° East 482 555 39,000  Level Cleveland Center
01:01PM 42.3717 -81.6819 86° East 482 555 39,000  Level Cleveland Center
01:02PM 42.3817 -81.4967 86° East 488 562 39,000  Level Cleveland Center
01:03PM 42.3933 -81.3114 85° East 488 562 39,000  Level Cleveland Center
01:04PM 42.4025 -81.1286 86° East 493 567 39,000  Level Cleveland Center
01:05PM 42.4139 -80.9403 85° East 493 567 39,000  Level Cleveland Center
01:06PM 42.4206 -80.7744 87° East 498 573 39,000  Level Cleveland Center
01:07PM 42.4289 -80.5889 86° East 498 573 39,000  Level Cleveland Center
01:08PM 42.4372 -80.4031 86° East 498 573 39,000  Level Cleveland Center
01:09PM 42.4472 -80.2203 86° East 492 566 39,000  Level Cleveland Center
01:10PM 42.4547 -80.0317 87° East 498 573 39,000  Level Cleveland Center
01:11PM 42.4642 -79.8317 86° East 491 565 39,000  Level Cleveland Center
01:12PM 42.4733 -79.6628 86° East 491 565 39,000  Level Cleveland Center
01:13PM 42.4800 -79.4767 87° East 491 565 39,000  Level Cleveland Center
01:14PM 42.4864 -79.2936 87° East 491 565 39,000  Level Cleveland Center
01:15PM 42.4925 -79.1078 87° East 497 572 39,000  Level Cleveland Center
01:16PM 42.4983 -78.9217 88° East 497 572 39,000  Level Cleveland Center
01:17PM 42.5039 -78.7356 88° East 497 572 39,000  Level Cleveland Center
01:18PM 42.5111 -78.5525 87° East 497 572 39,000  Level Cleveland Center
01:19PM 42.5161 -78.3664 88° East 497 572 39,000  Level Cleveland Center
01:20PM 42.5206 -78.1803 88° East 497 572 39,000  Level Cleveland Center
01:21PM 42.5231 -77.9997 89° East 492 566 39,000  Level Cleveland Center
01:22PM 42.5250 -77.8192 89° East 487 560 39,000  Level Cleveland Center
01:23PM 42.5331 -77.6331 87° East 487 560 39,000 -540 Level Cleveland Center
01:24PM 42.5394 -77.2708 89° East 499 574 37,600 -900 Descending Boston Center
01:25PM 42.5450 -77.0881 88° East 493 567 36,600 -1,020 Descending Boston Center
01:26PM 42.5464 -76.8964 89° East 493 567 35,600 -840 Descending Boston Center
01:27PM 42.5497 -76.7047 89° East 498 573 35,000 -300 Descending Boston Center
01:28PM 42.5503 -76.5189 90° East 498 573 35,000  Level Boston Center
01:29PM 42.5439 -76.3378 93° East 493 567 35,000 -480 Level Boston Center
01:30PM 42.5378 -76.1544 93° East 488 562 34,100 -960 Descending Boston Center
01:31PM 42.5314 -75.9622 93° East 493 567 33,100 -1,020 Descending Boston Center
01:32PM 42.5247 -75.7647 93° East 507 583 32,100 -1,140 Descending Boston Center
01:33PM 42.5156 -75.5725 94° East 513 590 30,900 -1,380 Descending Boston Center
01:34PM 42.5083 -75.3806 93° East 513 590 29,400 -1,620 Descending Boston Center
01:35PM 42.5006 -75.1917 93° East 513 590 27,700 -1,860 Descending Boston Center
01:36PM 42.4922 -75.0053 93° East 508 585 25,700 -2,100 Descending Boston Center
01:37PM 42.4856 -74.8333 93° East 480 552 23,600 -2,100 Descending Boston Center
01:38PM 42.4786 -74.6725 93° East 452 520 21,500 -1,920 Descending Boston Center
01:39PM 42.4797 -74.5036 89° East 444 511 19,800 -1,560 Descending Boston Center
01:40PM 42.4825 -74.3433 89° East 451 519 18,400 -900 Descending Boston Center
01:41PM 42.4792 -74.1631 91° East 451 519 18,000 -480 Descending Boston Center
01:42PM 42.4539 -74.0244 104° East 427 491 17,500 -900 Descending Boston Center
01:43PM 42.4208 -73.8547 105° East 421 484 16,200 -1,260 Descending Boston Center
01:45PM 42.3775 -73.6317 105° East 424 488 14,500 -1,200 Descending Boston Center
01:46PM 42.3517 -73.5133 106° East 421 484 13,600 -1,200 Descending Boston Center
01:47PM 42.3278 -73.3892 105° East 416 479 12,500 -1,200 Descending Boston Center
01:48PM 42.2978 -73.2203 103° East 416 479 11,200 -1,080 Descending Boston Center
01:49PM 42.2672 -73.0939 108° East 347 399 10,400 -960 Descending Boston Center
01:50PM 42.2469 -72.9842 104° East 300 345 9,300 -1,260 Descending Boston Center
01:51PM 42.2286 -72.8803 103° East 288 331 7,900 -1,560 Descending Boston Center
01:52PM 42.2103 -72.7597 102° East 300 345 6,200 -1,800 Descending Boston Center
01:53PM 42.1897 -72.6558 105° East 286 329 4,300 -1,080 Descending Boston Center
01:54PM 42.1503 -72.5772 124° Southeast 252 290 4,100 -420 Descending Boston Center
01:55PM 42.0961 -72.5381 152° Southeast 220 253 3,500 -780 Descending Boston Center
01:56PM 42.0397 -72.5603 196° South 202 232 2,600 -840 Descending Boston Center
01:57PM 42.0086 -72.5939 219° Southwest 144 166 1,900 -660 Descending Boston Center
01:58PM 41.9833 -72.6300 227° Southwest 125 144 1,300 -600 Descending Boston Center